This is the latest recevied weather packets stored in our database for station/object LZ2SMX-2. If no packets are shown the sender has not sent any weather packets the latest 10 day(s).
| Time | Temp. | Humidity | Pressure | Rain* | Wind** | Luminosity | Snow |
|---|---|---|---|---|---|---|---|
| 1777462392 | 15.56° C | 60% | 993 hPa | 0 mm | - | - | - |
| 1777461193 | 15.56° C | 60% | 993 hPa | 0 mm | - | - | - |
| 1777460334 | 16.67° C | 59% | 993 hPa | 0 mm | - | - | - |
| 1777459994 | 15.56° C | 56% | 993 hPa | 0 mm | - | - | - |
| 1777458793 | 16.67° C | 56% | 993 hPa | 0 mm | - | - | - |
| 1777457641 | 16.67° C | 59% | 993 hPa | 0 mm | - | - | - |
| 1777457594 | 16.67° C | 59% | 993 hPa | 0 mm | - | - | - |
| 1777456393 | 15.56° C | 59% | 993 hPa | 0 mm | - | - | - |
| 1777455673 | 16.67° C | 59% | 993 hPa | 0 mm | - | - | - |
| 1777453995 | 15.56° C | 59% | 993 hPa | 0 mm | - | - | - |
| 1777452794 | 15.56° C | 56% | 993 hPa | 0 mm | - | - | - |
| 1777451593 | 16.67° C | 59% | 993 hPa | 0 mm | - | - | - |
| 1777450394 | 16.67° C | 59% | 993 hPa | 0 mm | - | - | - |
| 1777449719 | 16.67° C | 60% | 994 hPa | 0 mm | - | - | - |
| 1777449193 | 17.78° C | 60% | 993 hPa | 0 mm | - | - | - |
| 1777447993 | 17.78° C | 54% | 993 hPa | 0 mm | - | - | - |
| 1777446793 | 17.78° C | 56% | 993 hPa | 0 mm | - | - | - |
| 1777445593 | 16.67° C | 60% | 994 hPa | 0 mm | - | - | - |
| 1777444949 | 10.56° C | 84% | 993 hPa | 0 mm | - | - | - |
| 1777444394 | 15° C | 61% | 993 hPa | 0 mm | - | - | - |
| 1777443193 | 13.89° C | 67% | 993 hPa | 0 mm | - | - | - |
| 1777441994 | 12.78° C | 77% | 994 hPa | 0 mm | - | - | - |
| 1777440793 | 10.56° C | 84% | 993 hPa | 0 mm | - | - | - |
| 1777439593 | 10° C | 85% | 993 hPa | 0 mm | - | - | - |
| 1777438530 | 6.67° C | 93% | 995 hPa | 0 mm | - | - | - |
* Rain latest hour (hover to see other rain measurements)
** Current wind speed in m/s (hover to see current wind gust speed)